sensor_id;sensor_type;location;lat;lon;timestamp;P1;durP1;ratioP1;P2;durP2;ratioP2
52962;SDS011;38827;53.024;6.596;2024-01-30T00:00:32;26.77;;;18.05;;
52962;SDS011;38827;53.024;6.596;2024-01-30T00:02:58;25.10;;;17.90;;
52962;SDS011;38827;53.024;6.596;2024-01-30T00:05:23;25.30;;;18.60;;
52962;SDS011;38827;53.024;6.596;2024-01-30T00:07:49;25.30;;;18.67;;
52962;SDS011;38827;53.024;6.596;2024-01-30T00:10:15;23.88;;;18.65;;
52962;SDS011;38827;53.024;6.596;2024-01-30T00:12:41;32.10;;;19.70;;
52962;SDS011;38827;53.024;6.596;2024-01-30T00:15:06;24.02;;;17.98;;
52962;SDS011;38827;53.024;6.596;2024-01-30T00:17:35;29.05;;;18.83;;
52962;SDS011;38827;53.024;6.596;2024-01-30T00:20:02;25.73;;;17.98;;
52962;SDS011;38827;53.024;6.596;2024-01-30T00:22:30;28.92;;;20.27;;
52962;SDS011;38827;53.024;6.596;2024-01-30T00:24:56;26.33;;;18.65;;
52962;SDS011;38827;53.024;6.596;2024-01-30T00:27:22;23.60;;;18.10;;
52962;SDS011;38827;53.024;6.596;2024-01-30T00:29:47;24.55;;;18.83;;
52962;SDS011;38827;53.024;6.596;2024-01-30T00:32:14;27.60;;;19.90;;
52962;SDS011;38827;53.024;6.596;2024-01-30T00:34:41;25.65;;;18.33;;
52962;SDS011;38827;53.024;6.596;2024-01-30T00:37:07;24.50;;;18.73;;
52962;SDS011;38827;53.024;6.596;2024-01-30T00:39:32;26.45;;;18.70;;
52962;SDS011;38827;53.024;6.596;2024-01-30T00:41:58;25.45;;;19.58;;
52962;SDS011;38827;53.024;6.596;2024-01-30T00:44:23;27.90;;;19.13;;
52962;SDS011;38827;53.024;6.596;2024-01-30T00:46:49;27.58;;;18.88;;
52962;SDS011;38827;53.024;6.596;2024-01-30T00:49:15;25.77;;;18.92;;
52962;SDS011;38827;53.024;6.596;2024-01-30T00:51:41;26.98;;;19.83;;
52962;SDS011;38827;53.024;6.596;2024-01-30T00:54:11;25.60;;;19.38;;
52962;SDS011;38827;53.024;6.596;2024-01-30T00:56:37;26.52;;;19.00;;
52962;SDS011;38827;53.024;6.596;2024-01-30T00:59:03;29.48;;;20.00;;
52962;SDS011;38827;53.024;6.596;2024-01-30T01:01:28;26.92;;;19.13;;
52962;SDS011;38827;53.024;6.596;2024-01-30T01:03:54;31.63;;;20.23;;
52962;SDS011;38827;53.024;6.596;2024-01-30T01:06:20;31.25;;;20.15;;
52962;SDS011;38827;53.024;6.596;2024-01-30T01:08:45;26.88;;;19.80;;
52962;SDS011;38827;53.024;6.596;2024-01-30T01:11:11;26.40;;;18.77;;
52962;SDS011;38827;53.024;6.596;2024-01-30T01:13:36;26.45;;;19.23;;
52962;SDS011;38827;53.024;6.596;2024-01-30T01:16:02;27.23;;;19.40;;
52962;SDS011;38827;53.024;6.596;2024-01-30T01:18:29;29.27;;;20.13;;
52962;SDS011;38827;53.024;6.596;2024-01-30T01:20:54;30.58;;;20.23;;
52962;SDS011;38827;53.024;6.596;2024-01-30T01:23:20;27.83;;;20.58;;
52962;SDS011;38827;53.024;6.596;2024-01-30T01:25:45;27.70;;;20.23;;
52962;SDS011;38827;53.024;6.596;2024-01-30T01:28:11;30.58;;;20.00;;
52962;SDS011;38827;53.024;6.596;2024-01-30T01:30:37;27.43;;;20.60;;
52962;SDS011;38827;53.024;6.596;2024-01-30T01:33:04;27.52;;;20.80;;
52962;SDS011;38827;53.024;6.596;2024-01-30T01:35:31;25.63;;;19.55;;
52962;SDS011;38827;53.024;6.596;2024-01-30T01:38:00;26.95;;;19.85;;
52962;SDS011;38827;53.024;6.596;2024-01-30T01:40:26;26.35;;;19.52;;
52962;SDS011;38827;53.024;6.596;2024-01-30T01:42:53;26.90;;;18.85;;
52962;SDS011;38827;53.024;6.596;2024-01-30T01:45:19;28.30;;;19.25;;
52962;SDS011;38827;53.024;6.596;2024-01-30T01:47:47;27.63;;;19.30;;
52962;SDS011;38827;53.024;6.596;2024-01-30T01:50:15;26.45;;;18.48;;
52962;SDS011;38827;53.024;6.596;2024-01-30T01:52:44;29.77;;;18.75;;
52962;SDS011;38827;53.024;6.596;2024-01-30T01:55:14;29.85;;;18.80;;
52962;SDS011;38827;53.024;6.596;2024-01-30T01:57:41;26.05;;;19.40;;
52962;SDS011;38827;53.024;6.596;2024-01-30T02:00:07;27.90;;;18.83;;
52962;SDS011;38827;53.024;6.596;2024-01-30T02:02:35;26.45;;;18.98;;
52962;SDS011;38827;53.024;6.596;2024-01-30T02:05:01;29.25;;;19.33;;
52962;SDS011;38827;53.024;6.596;2024-01-30T02:07:28;28.42;;;20.02;;
52962;SDS011;38827;53.024;6.596;2024-01-30T02:09:54;26.95;;;18.77;;
52962;SDS011;38827;53.024;6.596;2024-01-30T02:12:20;30.23;;;18.98;;
52962;SDS011;38827;53.024;6.596;2024-01-30T02:14:46;27.25;;;18.67;;
52962;SDS011;38827;53.024;6.596;2024-01-30T02:17:12;25.30;;;18.30;;
52962;SDS011;38827;53.024;6.596;2024-01-30T02:19:39;22.83;;;17.70;;
52962;SDS011;38827;53.024;6.596;2024-01-30T02:22:05;26.10;;;17.97;;
52962;SDS011;38827;53.024;6.596;2024-01-30T02:24:31;27.92;;;18.73;;
52962;SDS011;38827;53.024;6.596;2024-01-30T02:26:56;24.48;;;17.40;;
52962;SDS011;38827;53.024;6.596;2024-01-30T02:29:22;28.48;;;18.17;;
52962;SDS011;38827;53.024;6.596;2024-01-30T02:31:48;22.95;;;17.30;;
52962;SDS011;38827;53.024;6.596;2024-01-30T02:34:14;29.20;;;18.65;;
52962;SDS011;38827;53.024;6.596;2024-01-30T02:36:43;25.10;;;17.73;;
52962;SDS011;38827;53.024;6.596;2024-01-30T02:39:10;27.10;;;19.08;;
52962;SDS011;38827;53.024;6.596;2024-01-30T02:41:35;27.50;;;18.23;;
52962;SDS011;38827;53.024;6.596;2024-01-30T02:44:02;24.20;;;16.83;;
52962;SDS011;38827;53.024;6.596;2024-01-30T02:46:28;26.33;;;18.02;;
52962;SDS011;38827;53.024;6.596;2024-01-30T02:48:54;24.58;;;18.05;;
52962;SDS011;38827;53.024;6.596;2024-01-30T02:51:20;23.55;;;17.33;;
52962;SDS011;38827;53.024;6.596;2024-01-30T02:53:46;23.40;;;17.20;;
52962;SDS011;38827;53.024;6.596;2024-01-30T02:56:12;22.92;;;16.95;;
52962;SDS011;38827;53.024;6.596;2024-01-30T02:58:41;25.33;;;18.33;;
52962;SDS011;38827;53.024;6.596;2024-01-30T03:01:07;24.45;;;17.10;;
52962;SDS011;38827;53.024;6.596;2024-01-30T03:03:33;26.17;;;16.98;;
52962;SDS011;38827;53.024;6.596;2024-01-30T03:06:01;26.17;;;18.27;;
52962;SDS011;38827;53.024;6.596;2024-01-30T03:08:27;25.35;;;17.52;;
52962;SDS011;38827;53.024;6.596;2024-01-30T03:10:53;28.90;;;18.20;;
52962;SDS011;38827;53.024;6.596;2024-01-30T03:13:19;25.20;;;16.83;;
52962;SDS011;38827;53.024;6.596;2024-01-30T03:15:44;25.00;;;17.15;;
52962;SDS011;38827;53.024;6.596;2024-01-30T03:18:10;24.98;;;17.13;;
52962;SDS011;38827;53.024;6.596;2024-01-30T03:20:36;26.05;;;17.92;;
52962;SDS011;38827;53.024;6.596;2024-01-30T03:23:01;24.55;;;17.88;;
52962;SDS011;38827;53.024;6.596;2024-01-30T03:25:27;26.58;;;16.42;;
52962;SDS011;38827;53.024;6.596;2024-01-30T03:27:53;25.35;;;16.90;;
52962;SDS011;38827;53.024;6.596;2024-01-30T03:30:19;25.67;;;17.75;;
52962;SDS011;38827;53.024;6.596;2024-01-30T03:32:45;22.65;;;16.63;;
52962;SDS011;38827;53.024;6.596;2024-01-30T03:35:10;24.45;;;16.15;;
52962;SDS011;38827;53.024;6.596;2024-01-30T03:37:37;25.52;;;17.17;;
52962;SDS011;38827;53.024;6.596;2024-01-30T03:40:03;24.05;;;16.90;;
52962;SDS011;38827;53.024;6.596;2024-01-30T03:42:29;23.42;;;16.75;;
52962;SDS011;38827;53.024;6.596;2024-01-30T03:44:55;22.90;;;16.05;;
52962;SDS011;38827;53.024;6.596;2024-01-30T03:47:21;22.02;;;15.70;;
52962;SDS011;38827;53.024;6.596;2024-01-30T03:49:47;21.88;;;15.50;;
52962;SDS011;38827;53.024;6.596;2024-01-30T03:52:16;21.55;;;16.38;;
52962;SDS011;38827;53.024;6.596;2024-01-30T03:54:41;20.13;;;15.23;;
52962;SDS011;38827;53.024;6.596;2024-01-30T03:57:07;20.85;;;15.63;;
52962;SDS011;38827;53.024;6.596;2024-01-30T03:59:33;22.92;;;15.32;;
52962;SDS011;38827;53.024;6.596;2024-01-30T04:01:59;21.60;;;15.90;;
52962;SDS011;38827;53.024;6.596;2024-01-30T04:04:25;20.38;;;14.80;;
52962;SDS011;38827;53.024;6.596;2024-01-30T04:06:51;24.00;;;15.45;;
52962;SDS011;38827;53.024;6.596;2024-01-30T04:09:16;22.75;;;14.88;;
52962;SDS011;38827;53.024;6.596;2024-01-30T04:11:42;20.13;;;14.07;;
52962;SDS011;38827;53.024;6.596;2024-01-30T04:14:08;21.27;;;15.38;;
52962;SDS011;38827;53.024;6.596;2024-01-30T04:16:34;20.17;;;14.18;;
52962;SDS011;38827;53.024;6.596;2024-01-30T04:18:59;21.58;;;14.70;;
52962;SDS011;38827;53.024;6.596;2024-01-30T04:21:25;19.17;;;14.05;;
52962;SDS011;38827;53.024;6.596;2024-01-30T04:23:51;20.83;;;14.40;;
52962;SDS011;38827;53.024;6.596;2024-01-30T04:26:17;19.73;;;14.60;;
52962;SDS011;38827;53.024;6.596;2024-01-30T04:28:44;19.73;;;14.00;;
52962;SDS011;38827;53.024;6.596;2024-01-30T04:31:10;20.60;;;14.25;;
52962;SDS011;38827;53.024;6.596;2024-01-30T04:33:36;20.45;;;14.30;;
52962;SDS011;38827;53.024;6.596;2024-01-30T04:36:02;17.60;;;13.45;;
52962;SDS011;38827;53.024;6.596;2024-01-30T04:38:28;17.45;;;13.27;;
52962;SDS011;38827;53.024;6.596;2024-01-30T04:40:54;16.73;;;13.68;;
52962;SDS011;38827;53.024;6.596;2024-01-30T04:43:20;17.92;;;14.05;;
52962;SDS011;38827;53.024;6.596;2024-01-30T04:45:46;19.13;;;13.50;;
52962;SDS011;38827;53.024;6.596;2024-01-30T04:48:12;19.67;;;13.65;;
52962;SDS011;38827;53.024;6.596;2024-01-30T04:50:38;21.70;;;14.10;;
52962;SDS011;38827;53.024;6.596;2024-01-30T04:53:04;17.98;;;13.25;;
52962;SDS011;38827;53.024;6.596;2024-01-30T04:55:30;22.95;;;14.18;;
52962;SDS011;38827;53.024;6.596;2024-01-30T04:57:55;16.20;;;13.02;;
52962;SDS011;38827;53.024;6.596;2024-01-30T05:00:21;19.10;;;14.20;;
52962;SDS011;38827;53.024;6.596;2024-01-30T05:02:49;18.10;;;12.85;;
52962;SDS011;38827;53.024;6.596;2024-01-30T05:05:15;21.02;;;13.32;;
52962;SDS011;38827;53.024;6.596;2024-01-30T05:07:41;18.67;;;14.00;;
52962;SDS011;38827;53.024;6.596;2024-01-30T05:10:07;19.20;;;13.65;;
52962;SDS011;38827;53.024;6.596;2024-01-30T05:12:33;22.52;;;13.88;;
52962;SDS011;38827;53.024;6.596;2024-01-30T05:14:59;18.67;;;13.82;;
52962;SDS011;38827;53.024;6.596;2024-01-30T05:17:24;18.23;;;13.82;;
52962;SDS011;38827;53.024;6.596;2024-01-30T05:19:50;20.25;;;14.15;;
52962;SDS011;38827;53.024;6.596;2024-01-30T05:22:16;18.92;;;13.77;;
52962;SDS011;38827;53.024;6.596;2024-01-30T05:24:43;19.60;;;14.32;;
52962;SDS011;38827;53.024;6.596;2024-01-30T05:27:10;17.48;;;13.23;;
52962;SDS011;38827;53.024;6.596;2024-01-30T05:29:36;23.80;;;13.65;;
52962;SDS011;38827;53.024;6.596;2024-01-30T05:32:03;17.25;;;13.23;;
52962;SDS011;38827;53.024;6.596;2024-01-30T05:34:30;17.75;;;12.90;;
52962;SDS011;38827;53.024;6.596;2024-01-30T05:36:56;17.58;;;12.90;;
52962;SDS011;38827;53.024;6.596;2024-01-30T05:39:21;20.73;;;14.82;;
52962;SDS011;38827;53.024;6.596;2024-01-30T05:41:47;18.65;;;13.90;;
52962;SDS011;38827;53.024;6.596;2024-01-30T05:44:12;18.67;;;13.70;;
52962;SDS011;38827;53.024;6.596;2024-01-30T05:46:38;16.80;;;12.95;;
52962;SDS011;38827;53.024;6.596;2024-01-30T05:49:04;17.05;;;13.70;;
52962;SDS011;38827;53.024;6.596;2024-01-30T05:51:29;19.20;;;13.90;;
52962;SDS011;38827;53.024;6.596;2024-01-30T05:53:55;17.65;;;12.15;;
52962;SDS011;38827;53.024;6.596;2024-01-30T05:56:21;18.00;;;12.88;;
52962;SDS011;38827;53.024;6.596;2024-01-30T05:58:46;18.35;;;13.15;;
52962;SDS011;38827;53.024;6.596;2024-01-30T06:01:12;18.20;;;13.20;;
52962;SDS011;38827;53.024;6.596;2024-01-30T06:03:37;20.05;;;13.60;;
52962;SDS011;38827;53.024;6.596;2024-01-30T06:06:04;18.40;;;13.10;;
52962;SDS011;38827;53.024;6.596;2024-01-30T06:08:30;16.10;;;12.65;;
52962;SDS011;38827;53.024;6.596;2024-01-30T06:10:55;18.67;;;12.77;;
52962;SDS011;38827;53.024;6.596;2024-01-30T06:13:21;19.15;;;13.15;;
52962;SDS011;38827;53.024;6.596;2024-01-30T06:15:47;23.27;;;14.02;;
52962;SDS011;38827;53.024;6.596;2024-01-30T06:18:12;17.17;;;12.55;;
52962;SDS011;38827;53.024;6.596;2024-01-30T06:20:38;18.35;;;12.57;;
52962;SDS011;38827;53.024;6.596;2024-01-30T06:23:04;19.30;;;13.15;;
52962;SDS011;38827;53.024;6.596;2024-01-30T06:25:29;19.70;;;13.15;;
52962;SDS011;38827;53.024;6.596;2024-01-30T06:27:55;20.70;;;13.48;;
52962;SDS011;38827;53.024;6.596;2024-01-30T06:30:21;18.23;;;13.00;;
52962;SDS011;38827;53.024;6.596;2024-01-30T06:32:46;16.33;;;12.40;;
52962;SDS011;38827;53.024;6.596;2024-01-30T06:35:12;18.50;;;12.52;;
52962;SDS011;38827;53.024;6.596;2024-01-30T06:37:37;18.55;;;12.23;;
52962;SDS011;38827;53.024;6.596;2024-01-30T06:40:03;17.85;;;12.93;;
52962;SDS011;38827;53.024;6.596;2024-01-30T06:42:35;17.35;;;12.27;;
52962;SDS011;38827;53.024;6.596;2024-01-30T06:45:01;17.27;;;12.23;;
52962;SDS011;38827;53.024;6.596;2024-01-30T06:47:27;15.88;;;12.38;;
52962;SDS011;38827;53.024;6.596;2024-01-30T06:49:56;15.60;;;12.70;;
52962;SDS011;38827;53.024;6.596;2024-01-30T06:52:30;18.83;;;12.77;;
52962;SDS011;38827;53.024;6.596;2024-01-30T06:54:59;16.95;;;12.63;;
52962;SDS011;38827;53.024;6.596;2024-01-30T06:57:31;16.30;;;12.95;;
52962;SDS011;38827;53.024;6.596;2024-01-30T06:59:57;17.25;;;12.90;;
52962;SDS011;38827;53.024;6.596;2024-01-30T07:02:32;18.58;;;12.43;;
52962;SDS011;38827;53.024;6.596;2024-01-30T07:05:01;15.93;;;13.00;;
52962;SDS011;38827;53.024;6.596;2024-01-30T07:07:27;18.83;;;13.15;;
52962;SDS011;38827;53.024;6.596;2024-01-30T07:09:56;16.87;;;12.40;;
52962;SDS011;38827;53.024;6.596;2024-01-30T07:12:34;16.95;;;12.63;;
52962;SDS011;38827;53.024;6.596;2024-01-30T07:15:00;17.70;;;12.50;;
52962;SDS011;38827;53.024;6.596;2024-01-30T07:17:26;17.35;;;12.68;;
52962;SDS011;38827;53.024;6.596;2024-01-30T07:19:51;17.08;;;12.27;;
52962;SDS011;38827;53.024;6.596;2024-01-30T07:22:17;16.20;;;11.93;;
52962;SDS011;38827;53.024;6.596;2024-01-30T07:24:43;16.73;;;12.82;;
52962;SDS011;38827;53.024;6.596;2024-01-30T07:27:13;19.88;;;12.75;;
52962;SDS011;38827;53.024;6.596;2024-01-30T07:29:40;20.30;;;12.90;;
52962;SDS011;38827;53.024;6.596;2024-01-30T07:32:11;18.90;;;12.85;;
52962;SDS011;38827;53.024;6.596;2024-01-30T07:34:37;18.20;;;12.32;;
52962;SDS011;38827;53.024;6.596;2024-01-30T07:37:08;17.58;;;12.27;;
52962;SDS011;38827;53.024;6.596;2024-01-30T07:39:47;20.27;;;12.38;;
52962;SDS011;38827;53.024;6.596;2024-01-30T07:42:12;17.33;;;12.63;;
52962;SDS011;38827;53.024;6.596;2024-01-30T07:44:38;18.00;;;12.60;;
52962;SDS011;38827;53.024;6.596;2024-01-30T07:47:04;17.35;;;12.10;;
52962;SDS011;38827;53.024;6.596;2024-01-30T07:49:30;17.17;;;11.93;;
52962;SDS011;38827;53.024;6.596;2024-01-30T07:51:56;16.38;;;12.43;;
52962;SDS011;38827;53.024;6.596;2024-01-30T07:54:23;16.50;;;12.45;;
52962;SDS011;38827;53.024;6.596;2024-01-30T07:56:49;17.42;;;12.27;;
52962;SDS011;38827;53.024;6.596;2024-01-30T07:59:14;17.70;;;12.52;;
52962;SDS011;38827;53.024;6.596;2024-01-30T08:01:40;16.30;;;11.80;;
52962;SDS011;38827;53.024;6.596;2024-01-30T08:04:06;18.05;;;12.57;;
52962;SDS011;38827;53.024;6.596;2024-01-30T08:06:31;15.55;;;12.23;;
52962;SDS011;38827;53.024;6.596;2024-01-30T08:08:57;17.67;;;12.02;;
52962;SDS011;38827;53.024;6.596;2024-01-30T08:11:24;18.17;;;12.73;;
52962;SDS011;38827;53.024;6.596;2024-01-30T08:13:54;18.40;;;12.10;;
52962;SDS011;38827;53.024;6.596;2024-01-30T08:16:20;17.73;;;12.65;;
52962;SDS011;38827;53.024;6.596;2024-01-30T08:18:46;15.65;;;12.18;;
52962;SDS011;38827;53.024;6.596;2024-01-30T08:21:12;18.83;;;12.77;;
52962;SDS011;38827;53.024;6.596;2024-01-30T08:23:38;17.25;;;11.90;;
52962;SDS011;38827;53.024;6.596;2024-01-30T08:26:05;15.02;;;11.43;;
52962;SDS011;38827;53.024;6.596;2024-01-30T08:28:31;16.45;;;11.20;;
52962;SDS011;38827;53.024;6.596;2024-01-30T08:30:56;17.15;;;11.57;;
52962;SDS011;38827;53.024;6.596;2024-01-30T08:33:22;16.95;;;11.32;;
52962;SDS011;38827;53.024;6.596;2024-01-30T08:35:48;15.60;;;11.15;;
52962;SDS011;38827;53.024;6.596;2024-01-30T08:38:17;17.20;;;11.65;;
52962;SDS011;38827;53.024;6.596;2024-01-30T08:40:43;16.48;;;11.80;;
52962;SDS011;38827;53.024;6.596;2024-01-30T08:43:08;17.10;;;11.10;;
52962;SDS011;38827;53.024;6.596;2024-01-30T08:45:35;15.77;;;11.00;;
52962;SDS011;38827;53.024;6.596;2024-01-30T08:48:04;16.35;;;10.95;;
52962;SDS011;38827;53.024;6.596;2024-01-30T08:50:30;17.67;;;11.02;;
52962;SDS011;38827;53.024;6.596;2024-01-30T08:52:55;16.08;;;11.13;;
52962;SDS011;38827;53.024;6.596;2024-01-30T08:55:22;15.13;;;11.50;;
52962;SDS011;38827;53.024;6.596;2024-01-30T08:57:48;15.80;;;10.93;;
52962;SDS011;38827;53.024;6.596;2024-01-30T09:00:13;16.67;;;11.05;;
52962;SDS011;38827;53.024;6.596;2024-01-30T09:02:39;15.88;;;11.10;;
52962;SDS011;38827;53.024;6.596;2024-01-30T09:05:05;16.42;;;11.27;;
52962;SDS011;38827;53.024;6.596;2024-01-30T09:07:31;18.15;;;10.18;;
52962;SDS011;38827;53.024;6.596;2024-01-30T09:09:57;15.18;;;10.40;;
52962;SDS011;38827;53.024;6.596;2024-01-30T09:12:22;13.52;;;10.40;;
52962;SDS011;38827;53.024;6.596;2024-01-30T09:14:48;15.80;;;10.45;;
52962;SDS011;38827;53.024;6.596;2024-01-30T09:17:14;15.43;;;10.65;;
52962;SDS011;38827;53.024;6.596;2024-01-30T09:19:40;16.35;;;10.25;;
52962;SDS011;38827;53.024;6.596;2024-01-30T09:22:18;13.90;;;10.48;;
52962;SDS011;38827;53.024;6.596;2024-01-30T09:24:44;15.20;;;11.13;;
52962;SDS011;38827;53.024;6.596;2024-01-30T09:27:09;15.60;;;10.85;;
52962;SDS011;38827;53.024;6.596;2024-01-30T09:29:38;13.98;;;10.15;;
52962;SDS011;38827;53.024;6.596;2024-01-30T09:32:10;15.77;;;10.68;;
52962;SDS011;38827;53.024;6.596;2024-01-30T09:34:36;15.25;;;10.98;;
52962;SDS011;38827;53.024;6.596;2024-01-30T09:37:02;20.17;;;10.93;;
52962;SDS011;38827;53.024;6.596;2024-01-30T09:39:29;17.65;;;10.05;;
52962;SDS011;38827;53.024;6.596;2024-01-30T09:41:55;14.68;;;10.38;;
52962;SDS011;38827;53.024;6.596;2024-01-30T09:44:44;15.90;;;10.77;;
52962;SDS011;38827;53.024;6.596;2024-01-30T09:47:15;15.20;;;10.07;;
52962;SDS011;38827;53.024;6.596;2024-01-30T09:52:09;15.00;;;10.27;;
52962;SDS011;38827;53.024;6.596;2024-01-30T09:54:36;17.35;;;9.65;;
52962;SDS011;38827;53.024;6.596;2024-01-30T09:57:06;19.08;;;10.10;;
52962;SDS011;38827;53.024;6.596;2024-01-30T09:59:35;17.83;;;10.15;;
52962;SDS011;38827;53.024;6.596;2024-01-30T10:02:04;16.77;;;9.77;;
52962;SDS011;38827;53.024;6.596;2024-01-30T10:04:38;15.07;;;10.00;;
52962;SDS011;38827;53.024;6.596;2024-01-30T10:07:04;14.93;;;9.90;;
52962;SDS011;38827;53.024;6.596;2024-01-30T10:09:49;14.52;;;9.57;;
52962;SDS011;38827;53.024;6.596;2024-01-30T10:12:15;20.05;;;10.60;;
52962;SDS011;38827;53.024;6.596;2024-01-30T10:14:46;16.30;;;9.90;;
52962;SDS011;38827;53.024;6.596;2024-01-30T10:17:12;17.67;;;10.23;;
52962;SDS011;38827;53.024;6.596;2024-01-30T10:19:39;16.13;;;10.13;;
52962;SDS011;38827;53.024;6.596;2024-01-30T10:22:05;15.48;;;9.80;;
52962;SDS011;38827;53.024;6.596;2024-01-30T10:24:31;17.88;;;11.32;;
52962;SDS011;38827;53.024;6.596;2024-01-30T10:26:58;20.45;;;11.52;;
52962;SDS011;38827;53.024;6.596;2024-01-30T10:29:27;15.75;;;10.10;;
52962;SDS011;38827;53.024;6.596;2024-01-30T10:32:06;21.40;;;10.73;;
52962;SDS011;38827;53.024;6.596;2024-01-30T10:34:34;15.88;;;10.32;;
52962;SDS011;38827;53.024;6.596;2024-01-30T10:39:40;15.25;;;9.88;;
52962;SDS011;38827;53.024;6.596;2024-01-30T10:47:37;17.20;;;9.32;;
52962;SDS011;38827;53.024;6.596;2024-01-30T10:50:04;17.20;;;10.82;;
52962;SDS011;38827;53.024;6.596;2024-01-30T10:52:31;14.43;;;10.20;;
52962;SDS011;38827;53.024;6.596;2024-01-30T10:54:57;16.38;;;10.20;;
52962;SDS011;38827;53.024;6.596;2024-01-30T10:57:44;16.90;;;10.02;;
52962;SDS011;38827;53.024;6.596;2024-01-30T11:00:10;14.38;;;10.20;;
52962;SDS011;38827;53.024;6.596;2024-01-30T11:02:41;17.33;;;10.55;;
52962;SDS011;38827;53.024;6.596;2024-01-30T11:05:08;15.88;;;10.40;;
52962;SDS011;38827;53.024;6.596;2024-01-30T11:07:35;16.60;;;10.60;;
52962;SDS011;38827;53.024;6.596;2024-01-30T11:10:03;13.77;;;10.00;;
52962;SDS011;38827;53.024;6.596;2024-01-30T11:12:30;15.25;;;10.27;;
52962;SDS011;38827;53.024;6.596;2024-01-30T11:20:19;15.55;;;10.38;;
52962;SDS011;38827;53.024;6.596;2024-01-30T11:22:52;17.67;;;10.43;;
52962;SDS011;38827;53.024;6.596;2024-01-30T11:27:46;17.73;;;10.88;;
52962;SDS011;38827;53.024;6.596;2024-01-30T11:30:35;17.15;;;11.05;;
52962;SDS011;38827;53.024;6.596;2024-01-30T11:33:08;17.83;;;10.70;;
52962;SDS011;38827;53.024;6.596;2024-01-30T11:35:42;16.50;;;10.85;;
52962;SDS011;38827;53.024;6.596;2024-01-30T11:38:10;22.63;;;10.75;;
52962;SDS011;38827;53.024;6.596;2024-01-30T11:40:37;17.95;;;10.88;;
52962;SDS011;38827;53.024;6.596;2024-01-30T11:43:04;20.00;;;11.77;;
52962;SDS011;38827;53.024;6.596;2024-01-30T11:45:32;19.00;;;11.45;;
52962;SDS011;38827;53.024;6.596;2024-01-30T11:50:26;21.27;;;11.57;;
52962;SDS011;38827;53.024;6.596;2024-01-30T11:52:52;17.55;;;11.98;;
52962;SDS011;38827;53.024;6.596;2024-01-30T11:55:19;18.08;;;12.73;;
52962;SDS011;38827;53.024;6.596;2024-01-30T11:57:45;20.17;;;12.77;;
52962;SDS011;38827;53.024;6.596;2024-01-30T12:00:14;18.60;;;12.32;;
52962;SDS011;38827;53.024;6.596;2024-01-30T12:02:41;23.25;;;11.50;;
52962;SDS011;38827;53.024;6.596;2024-01-30T12:05:07;20.63;;;11.20;;
52962;SDS011;38827;53.024;6.596;2024-01-30T12:07:34;27.08;;;10.93;;
52962;SDS011;38827;53.024;6.596;2024-01-30T12:10:00;22.42;;;9.50;;
52962;SDS011;38827;53.024;6.596;2024-01-30T12:12:27;17.90;;;8.25;;
52962;SDS011;38827;53.024;6.596;2024-01-30T12:14:53;24.95;;;8.63;;
52962;SDS011;38827;53.024;6.596;2024-01-30T12:17:29;23.10;;;7.72;;
52962;SDS011;38827;53.024;6.596;2024-01-30T12:22:43;18.75;;;7.60;;
52962;SDS011;38827;53.024;6.596;2024-01-30T12:25:16;19.58;;;6.40;;
52962;SDS011;38827;53.024;6.596;2024-01-30T12:27:44;15.50;;;5.97;;
52962;SDS011;38827;53.024;6.596;2024-01-30T12:30:20;16.30;;;5.65;;
52962;SDS011;38827;53.024;6.596;2024-01-30T12:32:52;11.93;;;4.65;;
52962;SDS011;38827;53.024;6.596;2024-01-30T12:35:18;14.40;;;5.22;;
52962;SDS011;38827;53.024;6.596;2024-01-30T12:37:45;10.32;;;4.10;;
52962;SDS011;38827;53.024;6.596;2024-01-30T12:40:12;11.13;;;4.05;;
52962;SDS011;38827;53.024;6.596;2024-01-30T12:42:43;7.68;;;3.65;;
52962;SDS011;38827;53.024;6.596;2024-01-30T12:45:13;8.35;;;3.33;;
52962;SDS011;38827;53.024;6.596;2024-01-30T12:47:40;7.47;;;3.10;;
52962;SDS011;38827;53.024;6.596;2024-01-30T12:50:06;6.68;;;3.00;;
52962;SDS011;38827;53.024;6.596;2024-01-30T12:52:33;7.32;;;2.85;;
52962;SDS011;38827;53.024;6.596;2024-01-30T12:55:00;7.07;;;2.10;;
52962;SDS011;38827;53.024;6.596;2024-01-30T13:00:18;3.17;;;0.98;;
52962;SDS011;38827;53.024;6.596;2024-01-30T13:02:44;1.73;;;0.70;;
52962;SDS011;38827;53.024;6.596;2024-01-30T13:05:10;2.17;;;0.73;;
52962;SDS011;38827;53.024;6.596;2024-01-30T13:07:36;2.33;;;0.90;;
52962;SDS011;38827;53.024;6.596;2024-01-30T13:10:02;3.28;;;1.25;;
52962;SDS011;38827;53.024;6.596;2024-01-30T13:12:29;3.97;;;0.80;;
52962;SDS011;38827;53.024;6.596;2024-01-30T13:14:55;2.17;;;0.80;;
52962;SDS011;38827;53.024;6.596;2024-01-30T13:17:21;1.98;;;0.80;;
52962;SDS011;38827;53.024;6.596;2024-01-30T13:19:46;3.80;;;0.75;;
52962;SDS011;38827;53.024;6.596;2024-01-30T13:22:14;2.25;;;0.93;;
52962;SDS011;38827;53.024;6.596;2024-01-30T13:24:40;3.08;;;0.95;;
52962;SDS011;38827;53.024;6.596;2024-01-30T13:27:06;2.85;;;0.98;;
52962;SDS011;38827;53.024;6.596;2024-01-30T13:29:32;2.97;;;0.90;;
52962;SDS011;38827;53.024;6.596;2024-01-30T13:31:59;2.22;;;0.90;;
52962;SDS011;38827;53.024;6.596;2024-01-30T13:34:26;3.42;;;1.00;;
52962;SDS011;38827;53.024;6.596;2024-01-30T13:36:51;1.75;;;0.90;;
52962;SDS011;38827;53.024;6.596;2024-01-30T13:39:38;2.20;;;1.00;;
52962;SDS011;38827;53.024;6.596;2024-01-30T13:42:16;3.88;;;1.48;;
52962;SDS011;38827;53.024;6.596;2024-01-30T13:44:42;2.40;;;0.75;;
52962;SDS011;38827;53.024;6.596;2024-01-30T13:47:18;2.40;;;1.23;;
52962;SDS011;38827;53.024;6.596;2024-01-30T13:49:49;2.92;;;0.98;;
52962;SDS011;38827;53.024;6.596;2024-01-30T13:52:15;2.28;;;0.80;;
52962;SDS011;38827;53.024;6.596;2024-01-30T13:55:01;1.55;;;0.70;;
52962;SDS011;38827;53.024;6.596;2024-01-30T13:57:33;3.47;;;1.02;;
52962;SDS011;38827;53.024;6.596;2024-01-30T14:00:10;2.40;;;1.10;;
52962;SDS011;38827;53.024;6.596;2024-01-30T14:02:36;1.77;;;0.73;;
52962;SDS011;38827;53.024;6.596;2024-01-30T14:05:02;3.20;;;0.90;;
52962;SDS011;38827;53.024;6.596;2024-01-30T14:07:29;2.17;;;0.85;;
52962;SDS011;38827;53.024;6.596;2024-01-30T14:09:55;3.17;;;1.10;;
52962;SDS011;38827;53.024;6.596;2024-01-30T14:12:21;2.60;;;0.95;;
52962;SDS011;38827;53.024;6.596;2024-01-30T14:14:47;4.00;;;0.98;;
52962;SDS011;38827;53.024;6.596;2024-01-30T14:17:12;2.92;;;0.98;;
52962;SDS011;38827;53.024;6.596;2024-01-30T14:19:38;2.10;;;0.80;;
52962;SDS011;38827;53.024;6.596;2024-01-30T14:22:04;5.65;;;1.50;;
52962;SDS011;38827;53.024;6.596;2024-01-30T14:26:56;5.00;;;1.70;;
52962;SDS011;38827;53.024;6.596;2024-01-30T14:29:22;2.88;;;1.20;;
52962;SDS011;38827;53.024;6.596;2024-01-30T14:31:47;4.18;;;1.20;;
52962;SDS011;38827;53.024;6.596;2024-01-30T14:34:14;5.25;;;1.40;;
52962;SDS011;38827;53.024;6.596;2024-01-30T14:36:40;2.65;;;1.30;;
52962;SDS011;38827;53.024;6.596;2024-01-30T14:39:06;4.20;;;1.80;;
52962;SDS011;38827;53.024;6.596;2024-01-30T14:41:32;5.20;;;1.67;;
52962;SDS011;38827;53.024;6.596;2024-01-30T14:44:08;5.70;;;2.07;;
52962;SDS011;38827;53.024;6.596;2024-01-30T14:46:37;4.50;;;1.80;;
52962;SDS011;38827;53.024;6.596;2024-01-30T14:49:03;5.93;;;2.30;;
52962;SDS011;38827;53.024;6.596;2024-01-30T14:51:30;4.47;;;2.00;;
52962;SDS011;38827;53.024;6.596;2024-01-30T14:53:56;3.83;;;2.00;;